createdAt,value
2017-11-25T09:48:10.763Z,2192
2017-11-25T09:48:36.248Z,4148
2017-11-25T09:49:01.768Z,2224
2017-11-25T09:49:27.264Z,3664
2017-11-25T09:49:52.739Z,400
2017-11-25T09:50:18.219Z,4172
2017-11-25T09:50:43.708Z,4132
2017-11-25T09:51:09.225Z,4128
2017-11-25T09:51:34.720Z,4108
2017-11-25T09:52:00.177Z,4112
2017-11-25T09:52:25.633Z,4140
2017-11-25T09:52:51.124Z,4172
2017-11-25T09:53:16.598Z,4200
2017-11-25T09:53:42.073Z,4232
2017-11-25T09:54:07.589Z,4272
2017-11-25T09:54:33.058Z,4308
2017-11-25T09:54:58.566Z,4332
2017-11-25T09:55:24.034Z,4356
2017-11-25T09:55:49.543Z,4384
2017-11-25T09:56:14.997Z,4408
2017-11-25T09:56:40.476Z,4424
2017-11-25T09:57:05.969Z,4440
2017-11-25T09:57:31.452Z,4464
2017-11-25T09:57:56.930Z,4488
2017-11-25T09:58:22.417Z,4516
2017-11-25T09:58:47.876Z,4544
2017-11-25T09:59:13.358Z,4560
2017-11-25T09:59:38.857Z,4560
2017-11-25T10:00:04.357Z,4552
2017-11-25T10:00:29.813Z,4536
2017-11-25T10:00:55.335Z,4512
2017-11-25T10:01:20.839Z,4476
2017-11-25T10:01:46.320Z,4420
2017-11-25T10:02:11.877Z,4356
2017-11-25T10:02:37.382Z,4280
2017-11-25T10:03:02.805Z,4204
2017-11-25T10:03:28.304Z,4148
2017-11-25T10:03:53.785Z,4096
2017-11-25T10:04:19.265Z,4044
2017-11-25T10:04:44.720Z,4008
2017-11-25T10:05:10.200Z,3980
2017-11-25T10:05:35.669Z,3952
2017-11-25T10:06:01.165Z,3916
2017-11-25T10:06:26.672Z,3872
2017-11-25T10:06:52.146Z,3828
2017-11-25T10:07:17.645Z,3796
2017-11-25T10:07:43.148Z,3748
2017-11-25T10:08:08.623Z,3672
2017-11-25T10:08:34.107Z,3576
2017-11-25T10:08:59.620Z,3480
2017-11-25T10:09:25.093Z,3376
2017-11-25T10:09:50.568Z,3268
2017-11-25T10:10:16.055Z,3160
2017-11-25T10:10:41.522Z,3064
2017-11-25T10:11:07.010Z,2992
2017-11-25T10:11:32.487Z,2944
2017-11-25T10:11:57.972Z,2924
2017-11-25T10:12:23.470Z,2924
2017-11-25T10:12:48.948Z,2944
2017-11-25T10:13:14.375Z,2992
2017-11-25T10:13:39.876Z,3040
2017-11-25T10:14:05.282Z,3092
2017-11-25T10:14:30.733Z,3144
2017-11-25T10:14:56.203Z,3184
2017-11-25T10:15:21.646Z,3216
2017-11-25T10:15:47.189Z,3236
2017-11-25T10:16:12.613Z,3248
2017-11-25T10:16:38.096Z,3256
2017-11-25T10:17:03.547Z,3256
2017-11-25T10:17:29.020Z,3244
2017-11-25T10:18:52.511Z,3204
2017-11-25T10:19:17.960Z,3184
2017-11-25T10:19:43.456Z,3168
2017-11-25T10:20:08.923Z,3152
2017-11-25T10:20:34.416Z,3144
2017-11-25T10:20:59.886Z,3136
2017-11-25T10:21:25.352Z,3128
2017-11-25T10:21:50.861Z,3124
2017-11-25T10:22:16.335Z,3132
2017-11-25T10:22:41.805Z,3132
2017-11-25T10:23:07.343Z,3136
2017-11-25T10:23:32.843Z,3140
2017-11-25T10:23:58.317Z,3136
2017-11-25T10:24:23.776Z,3124
2017-11-25T10:25:33.282Z,3076
2017-11-25T10:25:58.774Z,3048
2017-11-25T10:26:24.309Z,3000
2017-11-25T10:26:49.968Z,2944
2017-11-25T10:27:15.313Z,2888
2017-11-25T10:27:40.790Z,2848
2017-11-25T10:28:06.266Z,2824
2017-11-25T10:28:31.775Z,2812
2017-11-25T10:28:57.237Z,2796
2017-11-25T10:29:22.722Z,2780
2017-11-25T10:29:48.330Z,2752
2017-11-25T10:30:13.821Z,2716
2017-11-25T10:30:39.297Z,2672
2017-11-25T10:31:04.821Z,2632
2017-11-25T10:31:30.262Z,2588
2017-11-25T10:31:55.805Z,2580
2017-11-25T10:32:21.292Z,2576
2017-11-25T10:32:46.768Z,2572
2017-11-25T10:33:12.250Z,2560
2017-11-25T10:33:37.761Z,2568
2017-11-25T10:34:03.215Z,2600
2017-11-25T10:34:28.667Z,2644
2017-11-25T10:34:54.193Z,2688
2017-11-25T10:35:19.688Z,2748
2017-11-25T10:35:45.175Z,2836
2017-11-25T10:36:10.661Z,2928
2017-11-25T10:36:36.191Z,2996
2017-11-25T10:37:01.691Z,3020
2017-11-25T10:37:27.189Z,3016
2017-11-25T10:37:52.657Z,3004
2017-11-25T10:38:18.216Z,2996
2017-11-25T10:38:43.714Z,3004
2017-11-25T10:39:09.240Z,3016
2017-11-25T10:39:34.753Z,3004
2017-11-25T10:40:00.284Z,2980
2017-11-25T10:40:25.847Z,2960
2017-11-25T10:40:51.338Z,2948
2017-11-25T10:41:16.879Z,2952
2017-11-25T10:41:42.417Z,2944
2017-11-25T10:42:07.941Z,2924
2017-11-25T10:42:33.450Z,2904
2017-11-25T10:42:58.972Z,2880
2017-11-25T10:43:24.500Z,2872
2017-11-25T10:43:50.071Z,2868
2017-11-25T10:44:15.571Z,2868
2017-11-25T10:44:41.045Z,2856
2017-11-25T10:45:06.586Z,2844
2017-11-25T10:45:32.073Z,2816
2017-11-25T10:45:57.548Z,2784
2017-11-25T10:46:23.055Z,2760
2017-11-25T10:46:48.519Z,2740
2017-11-25T10:47:13.980Z,2736
2017-11-25T10:47:39.459Z,2720
2017-11-25T10:48:04.918Z,2716
2017-11-25T10:48:30.464Z,2716
2017-11-25T10:48:55.964Z,2744
2017-11-25T10:49:21.491Z,2780
2017-11-25T10:49:46.974Z,2840
2017-11-25T10:50:12.445Z,2908
2017-11-25T10:50:37.962Z,2980
2017-11-25T10:51:03.430Z,3060
2017-11-25T10:51:28.936Z,3144
2017-11-25T10:51:54.447Z,3244
2017-11-25T10:52:19.937Z,3352
2017-11-25T10:52:45.440Z,3456
2017-11-25T10:53:10.967Z,3536
2017-11-25T10:53:36.475Z,3608
2017-11-25T10:54:01.949Z,3676
2017-11-25T10:54:27.461Z,3740
2017-11-25T10:54:52.929Z,3820
2017-11-25T10:55:18.466Z,3924
2017-11-25T10:55:43.928Z,4020
2017-11-25T10:56:09.415Z,4100
2017-11-25T10:56:34.877Z,4168
2017-11-25T10:57:00.406Z,4204
2017-11-25T10:57:25.893Z,4228
2017-11-25T10:57:51.401Z,4272
2017-11-25T10:58:16.933Z,4324
2017-11-25T10:58:42.447Z,4364
2017-11-25T10:59:07.980Z,4400
2017-11-25T10:59:33.462Z,4432
2017-11-25T10:59:58.973Z,4472
2017-11-25T11:00:24.476Z,4480
2017-11-25T11:00:49.978Z,4492
2017-11-25T11:01:15.589Z,4508
2017-11-25T11:01:41.133Z,4472
2017-11-25T11:02:06.652Z,4436
2017-11-25T11:02:32.140Z,4380
2017-11-25T11:02:57.681Z,4312
2017-11-25T11:03:23.266Z,4240
2017-11-25T11:03:48.807Z,4180
2017-11-25T11:04:14.347Z,4108
2017-11-25T11:04:39.860Z,4040
2017-11-25T11:05:05.352Z,3944
2017-11-25T11:05:30.941Z,3880
2017-11-25T11:05:56.424Z,3816
2017-11-25T11:06:21.942Z,3792
2017-11-25T11:06:47.498Z,3724
2017-11-25T11:07:13.004Z,3680
2017-11-25T11:07:38.528Z,3632
2017-11-25T11:08:04.002Z,3560
2017-11-25T11:08:29.488Z,3504
2017-11-25T11:08:54.914Z,3440
2017-11-25T11:09:20.401Z,3372
2017-11-25T11:09:45.864Z,3312
2017-11-25T11:10:11.409Z,3248
2017-11-25T11:10:36.862Z,3164
2017-11-25T11:11:02.387Z,3096
2017-11-25T11:11:27.852Z,3028
2017-11-25T11:11:53.354Z,2980
2017-11-25T11:12:18.873Z,2908
2017-11-25T11:12:44.366Z,2868
2017-11-25T11:13:09.890Z,2824
2017-11-25T11:13:35.431Z,2804
2017-11-25T11:14:00.952Z,2776
2017-11-25T11:14:26.439Z,2760
2017-11-25T11:14:52.001Z,2744
2017-11-25T11:15:17.471Z,2696
2017-11-25T11:15:42.966Z,2656
2017-11-25T11:16:08.477Z,2616
2017-11-25T11:16:33.990Z,2632
2017-11-25T11:16:59.512Z,2600
2017-11-25T11:17:25.020Z,2568
2017-11-25T11:17:50.515Z,2564
2017-11-25T11:18:16.041Z,2576
2017-11-25T11:18:41.480Z,2588
2017-11-25T11:19:06.938Z,2580
2017-11-25T11:19:32.445Z,2572
2017-11-25T11:19:57.915Z,2544
2017-11-25T11:20:23.388Z,2544
2017-11-25T11:20:48.877Z,2532
2017-11-25T11:21:14.382Z,2500
2017-11-25T11:21:39.874Z,2496
2017-11-25T11:22:05.343Z,2476
2017-11-25T11:22:30.799Z,2460
2017-11-25T11:22:56.274Z,2440
2017-11-25T11:23:21.720Z,2428
2017-11-25T11:23:47.183Z,2408
2017-11-25T11:24:12.672Z,2384
2017-11-25T11:24:38.185Z,2360
2017-11-25T11:25:03.675Z,2328
2017-11-25T11:25:29.140Z,2292
2017-11-25T11:25:54.656Z,2272
2017-11-25T11:26:20.155Z,2248
2017-11-25T11:26:45.620Z,2232
2017-11-25T11:27:11.105Z,2224
2017-11-25T11:27:36.588Z,2216
2017-11-25T11:28:02.040Z,2208
2017-11-25T11:28:27.547Z,2204
2017-11-25T11:28:53.019Z,2200
2017-11-25T11:29:18.495Z,2188
2017-11-25T11:29:44.050Z,2180
2017-11-25T11:30:09.469Z,2164
2017-11-25T11:30:34.967Z,2176
2017-11-25T11:31:00.442Z,2180
2017-11-25T11:31:25.936Z,2196
2017-11-25T11:31:51.473Z,2232
2017-11-25T11:32:16.895Z,2288
2017-11-25T11:32:42.371Z,2324
2017-11-25T11:33:07.848Z,2348
2017-11-25T11:33:33.335Z,2372
2017-11-25T11:33:58.820Z,2388
2017-11-25T11:34:24.333Z,2404
2017-11-25T11:34:49.793Z,2408
2017-11-25T11:35:15.265Z,2412
2017-11-25T11:35:40.718Z,2416
2017-11-25T11:36:06.193Z,2400
2017-11-25T11:36:31.696Z,2376
2017-11-25T11:36:57.221Z,2344
2017-11-25T11:37:22.666Z,2284
2017-11-25T11:37:48.122Z,2244
2017-11-25T11:38:13.608Z,2208
2017-11-25T11:38:39.107Z,2156
2017-11-25T11:39:04.591Z,2132
2017-11-25T11:39:30.048Z,2120
2017-11-25T11:39:55.537Z,2116
2017-11-25T11:40:21.023Z,2120
2017-11-25T11:40:46.565Z,2124
2017-11-25T11:41:12.069Z,2132
2017-11-25T11:41:37.531Z,2124
2017-11-25T11:42:02.985Z,2112
2017-11-25T11:42:28.461Z,2088
2017-11-25T11:42:53.937Z,2072
2017-11-25T11:43:57.546Z,2052
2017-11-25T11:44:23.023Z,2052
2017-11-25T11:44:48.480Z,2040
2017-11-25T11:45:13.997Z,2028
2017-11-25T11:45:39.459Z,2004
2017-11-25T11:46:04.939Z,1980
2017-11-25T11:46:30.379Z,1968
2017-11-25T11:46:55.851Z,1968
2017-11-25T11:47:21.334Z,1972
2017-11-25T11:47:46.824Z,1984
2017-11-25T11:48:12.239Z,1992
2017-11-25T11:48:37.714Z,1996
2017-11-25T11:49:03.199Z,1968
2017-11-25T11:49:28.640Z,1924
2017-11-25T11:49:54.102Z,1880
2017-11-25T11:50:19.603Z,1840
2017-11-25T11:50:45.050Z,1828
2017-11-25T11:51:10.528Z,1856
2017-11-25T11:51:36.041Z,1832
2017-11-25T11:52:01.508Z,1812
2017-11-25T11:52:26.990Z,1816
2017-11-25T11:52:52.552Z,1788
2017-11-25T11:53:18.021Z,1820
2017-11-25T11:53:43.463Z,1796
2017-11-25T11:54:08.962Z,1776
2017-11-25T11:54:34.416Z,1768
2017-11-25T11:54:59.888Z,1772
2017-11-25T11:55:25.355Z,1732
2017-11-25T11:55:50.835Z,1680
2017-11-25T11:56:16.396Z,1656
2017-11-25T11:56:41.833Z,1652
2017-11-25T11:57:07.415Z,1636
2017-11-25T11:57:32.854Z,1636
2017-11-25T11:57:58.394Z,1644
2017-11-25T11:58:23.880Z,1672
2017-11-25T11:58:49.362Z,1688
2017-11-25T11:59:14.846Z,1704
2017-11-25T11:59:40.307Z,1728
2017-11-25T12:00:05.759Z,1768
2017-11-25T12:00:31.254Z,1808
2017-11-25T12:00:56.780Z,1828
2017-11-25T12:01:22.276Z,1824
2017-11-25T12:01:47.763Z,1824
2017-11-25T12:02:13.234Z,1820
2017-11-25T12:02:38.764Z,1792
2017-11-25T12:03:04.238Z,1788
2017-11-25T12:03:29.725Z,1764
2017-11-25T12:03:55.204Z,1748
2017-11-25T12:04:20.749Z,1772
2017-11-25T12:04:46.220Z,1772
2017-11-25T12:05:11.721Z,1776
2017-11-25T12:05:37.153Z,1780
2017-11-25T12:06:02.602Z,1760
2017-11-25T12:06:28.089Z,1752
2017-11-25T12:06:53.601Z,1748
2017-11-25T12:07:19.106Z,1740
2017-11-25T12:07:44.554Z,1716
2017-11-25T12:08:10.023Z,1720
2017-11-25T12:08:35.479Z,1696
2017-11-25T12:09:00.954Z,1676
2017-11-25T12:09:26.436Z,1652
2017-11-25T12:09:51.944Z,1640
2017-11-25T12:10:17.423Z,1640
2017-11-25T12:10:42.909Z,1648
2017-11-25T12:11:08.403Z,1644
2017-11-25T12:11:33.948Z,1636
2017-11-25T12:11:59.483Z,1624
2017-11-25T12:12:24.980Z,1624
2017-11-25T12:12:50.466Z,1620
2017-11-25T12:13:15.953Z,1636
2017-11-25T12:13:41.425Z,1692
2017-11-25T12:14:06.897Z,1712
2017-11-25T12:14:32.412Z,1732
2017-11-25T12:14:57.935Z,1768
2017-11-25T12:15:23.333Z,1772
2017-11-25T12:15:48.800Z,1760
2017-11-25T12:16:14.284Z,1768
2017-11-25T12:16:39.787Z,1800
2017-11-25T12:17:05.349Z,1820
2017-11-25T12:17:30.781Z,1832
2017-11-25T12:17:56.260Z,1864
2017-11-25T12:18:21.768Z,1876
2017-11-25T12:18:47.262Z,1888
2017-11-25T12:19:12.730Z,1916
2017-11-25T12:19:38.219Z,1944
2017-11-25T12:20:03.717Z,1976
2017-11-25T12:20:29.198Z,2012
2017-11-25T12:20:54.649Z,2036
2017-11-25T12:21:20.145Z,2064
2017-11-25T12:21:45.618Z,2100
2017-11-25T12:22:11.124Z,2128
2017-11-25T12:22:36.596Z,2160
2017-11-25T12:23:02.063Z,2196
2017-11-25T12:23:27.532Z,2224
2017-11-25T12:23:53.083Z,2244
2017-11-25T12:24:18.589Z,2252
2017-11-25T12:24:44.092Z,2252
2017-11-25T12:25:09.547Z,2248
2017-11-25T12:25:35.142Z,2244
2017-11-25T12:26:00.640Z,2232
2017-11-25T12:26:26.105Z,2228
2017-11-25T12:26:51.744Z,2232
2017-11-25T12:27:17.294Z,2240
2017-11-25T12:27:42.888Z,2248
2017-11-25T12:28:08.377Z,2264
2017-11-25T12:28:33.876Z,2272
2017-11-25T12:28:59.516Z,2276
2017-11-25T12:29:25.076Z,2288
2017-11-25T12:29:50.608Z,2300
2017-11-25T12:30:16.061Z,2316
2017-11-25T12:30:41.725Z,2344
2017-11-25T12:31:07.312Z,2372
2017-11-25T12:31:32.887Z,2408
2017-11-25T12:31:58.411Z,2448
2017-11-25T12:32:24.139Z,2504
2017-11-25T12:32:49.535Z,2568
2017-11-25T12:33:15.016Z,2640
2017-11-25T12:33:40.550Z,2704
2017-11-25T12:34:06.188Z,2760
2017-11-25T12:34:31.656Z,2812
2017-11-25T12:34:57.134Z,2868
2017-11-25T12:35:22.597Z,2920
2017-11-25T12:35:48.226Z,2968
2017-11-25T12:36:13.768Z,3028
2017-11-25T12:36:39.530Z,3100
2017-11-25T12:37:05.250Z,3188
2017-11-25T12:37:31.694Z,3280
2017-11-25T12:37:57.367Z,3376
2017-11-25T12:38:22.857Z,3464
2017-11-25T12:38:48.380Z,3540
2017-11-25T12:39:13.908Z,3600
2017-11-25T12:39:39.392Z,3692
2017-11-25T12:40:05.200Z,3760
2017-11-25T12:40:30.793Z,3816
2017-11-25T12:40:56.212Z,3876
2017-11-25T12:41:21.875Z,3936
2017-11-25T12:41:47.271Z,3984
2017-11-25T12:42:12.709Z,4056
2017-11-25T12:42:38.214Z,4120
2017-11-25T12:43:03.669Z,4188
2017-11-25T12:43:29.175Z,4252
2017-11-25T12:43:54.730Z,4316
2017-11-25T12:44:20.295Z,4364
2017-11-25T12:44:45.845Z,4412
2017-11-25T12:45:11.497Z,4460
2017-11-25T12:45:36.916Z,4496
2017-11-25T12:46:02.348Z,4504
2017-11-25T12:46:27.841Z,4504
2017-11-25T12:46:53.322Z,4320
2017-11-25T12:47:18.798Z,4488
2017-11-25T12:47:44.316Z,4472
2017-11-25T12:48:09.753Z,4460
2017-11-25T12:48:35.221Z,4440
2017-11-25T12:49:00.715Z,4416
2017-11-25T12:49:26.187Z,4396
2017-11-25T12:49:51.722Z,4396
2017-11-25T12:50:17.152Z,4388
2017-11-25T12:50:42.649Z,4352
2017-11-25T12:51:08.147Z,4300
2017-11-25T12:51:33.618Z,4240
2017-11-25T12:51:59.149Z,4172
2017-11-25T12:52:24.649Z,4088
2017-11-25T12:52:50.105Z,4012
2017-11-25T12:53:15.630Z,3940
2017-11-25T12:53:41.107Z,3860
2017-11-25T12:54:06.622Z,3788
2017-11-25T12:54:32.053Z,3716
2017-11-25T12:54:57.545Z,3648
2017-11-25T12:55:23.033Z,3592
2017-11-25T12:55:48.489Z,3540
2017-11-25T12:56:13.967Z,3484
2017-11-25T12:56:39.442Z,3420
2017-11-25T12:57:04.923Z,3364
2017-11-25T12:57:30.398Z,3312
2017-11-25T12:57:55.895Z,3276
2017-11-25T12:58:21.390Z,3248
2017-11-25T12:58:46.841Z,3208
2017-11-25T12:59:12.290Z,3168
2017-11-25T12:59:37.784Z,3128
2017-11-25T13:00:03.308Z,3088
2017-11-25T13:00:28.755Z,3052
2017-11-25T13:00:54.242Z,3016
2017-11-25T13:01:19.708Z,2972
2017-11-25T13:01:45.180Z,2932
2017-11-25T13:02:10.657Z,2904
2017-11-25T13:02:36.186Z,2880
2017-11-25T13:03:01.684Z,2872
2017-11-25T13:03:27.094Z,2872
2017-11-25T13:03:52.547Z,2880
2017-11-25T13:04:18.025Z,2884
2017-11-25T13:04:43.518Z,2888
2017-11-25T13:05:08.979Z,2888
2017-11-25T13:05:34.443Z,2884
2017-11-25T13:05:59.955Z,2880
2017-11-25T13:07:08.664Z,2872
2017-11-25T13:07:34.135Z,2868
2017-11-25T13:07:59.601Z,2872
2017-11-25T13:08:25.061Z,2892
2017-11-25T13:08:50.548Z,2924
2017-11-25T13:09:16.010Z,2968
2017-11-25T13:09:41.472Z,3032
2017-11-25T13:10:06.894Z,3092
2017-11-25T13:10:32.382Z,3156
2017-11-25T13:10:57.835Z,3192
2017-11-25T13:11:23.296Z,3224
2017-11-25T13:11:48.806Z,3256
2017-11-25T13:12:14.241Z,3296
2017-11-25T13:12:39.706Z,3340
2017-11-25T13:13:05.178Z,3372
2017-11-25T13:13:30.667Z,3392
2017-11-25T13:13:56.109Z,3404
2017-11-25T13:14:21.597Z,3416
2017-11-25T13:14:47.053Z,3428
2017-11-25T13:15:12.523Z,3428
2017-11-25T13:15:37.989Z,3424
2017-11-25T13:16:03.471Z,3404
2017-11-25T13:16:28.934Z,3384
2017-11-25T13:16:54.396Z,3368
2017-11-25T13:17:19.866Z,3356
2017-11-25T13:17:45.332Z,3344
2017-11-25T13:18:10.805Z,3336
2017-11-25T13:18:36.289Z,3328
2017-11-25T13:19:01.728Z,3316
2017-11-25T13:19:27.236Z,3292
2017-11-25T13:19:52.677Z,3272
2017-11-25T13:20:18.178Z,3248
2017-11-25T13:20:43.656Z,3220
2017-11-25T13:21:09.141Z,3196
2017-11-25T13:21:34.619Z,3172
2017-11-25T13:22:00.108Z,3144
2017-11-25T13:22:25.578Z,3128
2017-11-25T13:22:51.050Z,3120
2017-11-25T13:23:16.549Z,3116
2017-11-25T13:23:42.004Z,3116
2017-11-25T13:24:07.454Z,3124
2017-11-25T13:24:32.994Z,3128
2017-11-25T13:24:58.494Z,3128
2017-11-25T13:25:23.990Z,3128
2017-11-25T13:25:49.582Z,3120
2017-11-25T13:26:15.095Z,3112
2017-11-25T13:26:40.544Z,3096
2017-11-25T13:27:06.042Z,3088
2017-11-25T13:27:31.507Z,3076
2017-11-25T13:27:57.072Z,3064
2017-11-25T13:28:22.540Z,3052
2017-11-25T13:28:48.029Z,3048
2017-11-25T13:29:13.522Z,3044
2017-11-25T13:29:39.012Z,3040
2017-11-25T13:30:04.518Z,3032
2017-11-25T13:30:30.001Z,3016
2017-11-25T13:30:55.468Z,2992
2017-11-25T13:31:20.926Z,2964
2017-11-25T13:31:46.435Z,2932
2017-11-25T13:32:11.943Z,2896
2017-11-25T13:32:37.400Z,2856
2017-11-25T13:33:02.853Z,2820
2017-11-25T13:33:28.386Z,2780
2017-11-25T13:33:53.860Z,2744
2017-11-25T13:34:19.329Z,2704
2017-11-25T13:34:44.780Z,2664
2017-11-25T13:35:10.269Z,2624
2017-11-25T13:35:35.751Z,2580
2017-11-25T13:36:01.293Z,2552
2017-11-25T13:36:26.796Z,2524
2017-11-25T13:36:52.283Z,2500
2017-11-25T13:37:17.830Z,2480
2017-11-25T13:37:43.270Z,2468
2017-11-25T13:38:08.756Z,2452
2017-11-25T13:39:27.721Z,2376
2017-11-25T13:39:53.191Z,2348
2017-11-25T13:40:18.700Z,2320
2017-11-25T13:40:44.159Z,2296
2017-11-25T13:41:09.655Z,2272
2017-11-25T13:41:35.126Z,2252
2017-11-25T13:42:00.604Z,2236
2017-11-25T13:42:26.085Z,2220
2017-11-25T13:42:51.563Z,2208
2017-11-25T13:43:17.074Z,2200
2017-11-25T13:43:42.554Z,2192
2017-11-25T13:44:08.049Z,2184
2017-11-25T13:44:33.551Z,2176
2017-11-25T13:44:59.027Z,2172
2017-11-25T13:45:24.489Z,2168
2017-11-25T13:45:49.929Z,2164
2017-11-25T13:46:15.384Z,2164
2017-11-25T13:46:40.903Z,2168
2017-11-25T13:47:06.341Z,2168
2017-11-25T13:47:31.779Z,2180
2017-11-25T13:47:57.251Z,2192
2017-11-25T13:48:22.707Z,2204
2017-11-25T13:48:48.171Z,2220
2017-11-25T13:49:13.654Z,2232
2017-11-25T13:49:39.117Z,2244
2017-11-25T13:50:04.576Z,2256
2017-11-25T13:50:30.042Z,2268
2017-11-25T13:50:55.509Z,2272
2017-11-25T13:51:20.966Z,2284
2017-11-25T13:51:46.433Z,2292
2017-11-25T13:52:11.914Z,2292
2017-11-25T13:52:37.341Z,2284
2017-11-25T13:53:02.819Z,2276
2017-11-25T13:53:28.335Z,2260
2017-11-25T13:53:53.834Z,2244
2017-11-25T13:54:19.332Z,2232
2017-11-25T13:54:44.768Z,2220
2017-11-25T13:55:10.278Z,2212
2017-11-25T13:55:35.811Z,2216
2017-11-25T13:56:01.288Z,2224
2017-11-25T13:56:26.752Z,2236
2017-11-25T13:56:52.206Z,2248
2017-11-25T13:57:17.698Z,2268
2017-11-25T13:57:43.173Z,2292
2017-11-25T13:58:08.638Z,2320
2017-11-25T13:58:34.141Z,2352
2017-11-25T13:58:59.623Z,2380
2017-11-25T13:59:25.117Z,2412
2017-11-25T13:59:50.563Z,2436
2017-11-25T14:00:16.058Z,2464
2017-11-25T14:00:41.552Z,2492
2017-11-25T14:01:07.005Z,2520
2017-11-25T14:01:32.511Z,2552
2017-11-25T14:01:57.964Z,2576
2017-11-25T14:02:23.428Z,2596
2017-11-25T14:02:48.906Z,2604
2017-11-25T14:03:14.391Z,2604
2017-11-25T14:03:39.884Z,2588
2017-11-25T14:04:05.363Z,2564
2017-11-25T14:04:30.897Z,2520
2017-11-25T14:04:56.362Z,2476
2017-11-25T14:05:21.872Z,2412
2017-11-25T14:05:47.326Z,2348
2017-11-25T14:06:12.811Z,2280
2017-11-25T14:06:38.326Z,2212
2017-11-25T14:07:03.826Z,2144
2017-11-25T14:08:17.636Z,1948
2017-11-25T14:08:43.133Z,1892
2017-11-25T14:09:08.629Z,1832
2017-11-25T14:09:34.096Z,1780
2017-11-25T14:09:59.600Z,1728
2017-11-25T14:10:25.087Z,1676
2017-11-25T14:10:50.555Z,1624
2017-11-25T14:11:16.095Z,1580
2017-11-25T14:11:41.549Z,1536
2017-11-25T14:12:07.038Z,1496
2017-11-25T14:12:32.586Z,1460
2017-11-25T14:12:58.090Z,1424
2017-11-25T14:13:23.624Z,1392
2017-11-25T14:13:49.081Z,1364
2017-11-25T14:14:14.532Z,1336
2017-11-25T14:14:39.958Z,1308
2017-11-25T14:15:05.462Z,1288
2017-11-25T14:15:30.957Z,1268
2017-11-25T14:15:56.385Z,1248
2017-11-25T14:16:21.960Z,1236
2017-11-25T14:16:47.417Z,1220
2017-11-25T14:17:12.847Z,1208
2017-11-25T14:17:38.337Z,1200
2017-11-25T14:18:03.809Z,1192
2017-11-25T14:18:29.311Z,1188
2017-11-25T14:18:54.761Z,1192
2017-11-25T14:19:20.238Z,1196
2017-11-25T14:19:45.758Z,1200
2017-11-25T14:20:11.186Z,1212
2017-11-25T14:20:36.672Z,1224
2017-11-25T14:21:02.198Z,1236
2017-11-25T14:21:27.622Z,1252
2017-11-25T14:21:53.207Z,1272
2017-11-25T14:22:18.645Z,1288
2017-11-25T14:22:44.127Z,1308
2017-11-25T14:23:09.627Z,1328
2017-11-25T14:23:35.108Z,1348
2017-11-25T14:24:00.570Z,1364
2017-11-25T14:24:26.117Z,1380
2017-11-25T14:24:51.627Z,1396
2017-11-25T14:25:17.068Z,1412
2017-11-25T14:25:42.523Z,1428
2017-11-25T14:26:08.006Z,1436
2017-11-25T14:26:33.504Z,1436
2017-11-25T14:26:59.002Z,1428
2017-11-25T14:27:24.533Z,1420
2017-11-25T14:27:49.992Z,1412
2017-11-25T14:28:15.450Z,1392
2017-11-25T14:28:40.921Z,1376
2017-11-25T14:29:06.469Z,1356
2017-11-25T14:29:31.905Z,1332
2017-11-25T14:29:57.375Z,1308
2017-11-25T14:30:22.894Z,1284
2017-11-25T14:30:48.373Z,1268
2017-11-25T14:31:13.908Z,1252
2017-11-25T14:31:39.326Z,1228
2017-11-25T14:32:04.829Z,1204
2017-11-25T14:32:30.326Z,1184
2017-11-25T14:32:55.698Z,1164
2017-11-25T14:33:21.196Z,1140
2017-11-25T14:33:46.707Z,1108
2017-11-25T14:34:12.171Z,1084
2017-11-25T14:34:37.650Z,1052
2017-11-25T14:35:03.129Z,1028
2017-11-25T14:35:28.616Z,1004
2017-11-25T14:35:54.078Z,980
2017-11-25T14:36:19.587Z,960
2017-11-25T14:36:45.069Z,936
2017-11-25T14:37:10.670Z,916
2017-11-25T14:37:36.170Z,900
2017-11-25T14:38:01.610Z,884
2017-11-25T14:38:27.111Z,868
2017-11-25T14:38:52.525Z,852
2017-11-25T14:39:18.021Z,844
2017-11-25T14:39:43.514Z,832
2017-11-25T14:40:08.987Z,824
2017-11-25T14:40:34.472Z,816
2017-11-25T14:40:59.950Z,812
2017-11-25T14:41:25.393Z,808
2017-11-25T14:41:50.841Z,808
2017-11-25T14:42:16.339Z,812
2017-11-25T14:42:41.842Z,812
2017-11-25T14:43:07.377Z,812
2017-11-25T14:43:32.884Z,816
2017-11-25T14:43:58.332Z,820
2017-11-25T14:44:23.883Z,828
2017-11-25T14:44:49.370Z,836
2017-11-25T14:45:14.855Z,840
2017-11-25T14:45:40.324Z,848
2017-11-25T14:46:05.800Z,852
2017-11-25T14:46:31.357Z,856
2017-11-25T14:46:56.842Z,856
2017-11-25T14:47:22.358Z,856
2017-11-25T14:47:47.837Z,852
2017-11-25T14:48:13.402Z,848
2017-11-25T14:48:38.840Z,844
2017-11-25T14:49:04.329Z,836
2017-11-25T14:49:29.833Z,824
2017-11-25T14:49:55.317Z,816
2017-11-25T14:50:20.790Z,804
2017-11-25T14:50:46.277Z,792
2017-11-25T14:51:11.803Z,788
2017-11-25T14:51:37.315Z,780
2017-11-25T14:52:02.827Z,772
2017-11-25T14:52:28.392Z,768
2017-11-25T14:52:53.839Z,760
2017-11-25T14:53:19.332Z,748
2017-11-25T14:53:44.845Z,744
2017-11-25T14:54:10.330Z,736
2017-11-25T14:54:35.921Z,728
2017-11-25T14:55:01.350Z,716
2017-11-25T14:55:26.874Z,704
2017-11-25T14:55:52.368Z,696
2017-11-25T14:56:17.927Z,676
2017-11-25T14:56:43.424Z,664
2017-11-25T14:57:08.897Z,640
2017-11-25T14:57:34.425Z,616
2017-11-25T14:58:48.264Z,576
2017-11-25T14:59:13.796Z,572
2017-11-25T14:59:39.424Z,556
2017-11-25T15:00:04.790Z,556
2017-11-25T15:00:30.283Z,548
2017-11-25T15:00:55.781Z,532
2017-11-25T15:01:21.274Z,520
2017-11-25T15:01:46.761Z,516
2017-11-25T15:02:12.269Z,504
2017-11-25T15:02:37.747Z,492
2017-11-25T15:03:03.247Z,480
2017-11-25T15:03:28.769Z,476
2017-11-25T15:03:54.257Z,468
2017-11-25T15:04:19.732Z,460
2017-11-25T15:04:45.276Z,452
2017-11-25T15:05:10.742Z,448
2017-11-25T15:05:36.204Z,440
2017-11-25T15:06:01.711Z,428
2017-11-25T15:06:27.226Z,420
2017-11-25T15:06:52.799Z,412
2017-11-25T15:07:18.304Z,408
2017-11-25T15:07:43.774Z,404
2017-11-25T15:08:09.250Z,400
2017-11-25T15:08:34.771Z,388
2017-11-25T15:09:00.241Z,384
2017-11-25T15:09:25.734Z,376
2017-11-25T15:09:51.208Z,364
2017-11-25T15:10:16.706Z,352
2017-11-25T15:10:42.190Z,340
2017-11-25T15:11:07.664Z,328
2017-11-25T15:11:33.190Z,316
2017-11-25T15:11:58.685Z,304
2017-11-25T15:12:24.189Z,296
2017-11-25T15:12:49.685Z,284
2017-11-25T15:13:15.165Z,268
2017-11-25T15:13:40.598Z,260
2017-11-25T15:14:06.155Z,252
2017-11-25T15:14:31.631Z,244
2017-11-25T15:14:57.127Z,240
2017-11-25T15:15:22.603Z,228
2017-11-25T15:15:48.091Z,224
2017-11-25T15:16:13.577Z,212
2017-11-25T15:16:39.082Z,204
2017-11-25T15:17:04.583Z,196
2017-11-25T15:17:30.087Z,188
2017-11-25T15:17:55.564Z,184
2017-11-25T15:18:21.073Z,184
2017-11-25T15:18:46.571Z,188
2017-11-25T15:19:12.062Z,184
2017-11-25T15:19:37.562Z,184
2017-11-25T15:20:03.076Z,180
2017-11-25T15:20:28.601Z,176
2017-11-25T15:20:54.163Z,172
2017-11-25T15:21:19.547Z,164
2017-11-25T15:21:45.066Z,156
2017-11-25T15:22:10.551Z,152
2017-11-25T15:22:36.064Z,144
2017-11-25T15:23:01.616Z,140
2017-11-25T15:23:27.120Z,128
2017-11-25T15:23:52.704Z,124
2017-11-25T15:24:18.170Z,116
2017-11-25T15:24:43.694Z,108
2017-11-25T15:25:09.194Z,112
2017-11-25T15:25:34.680Z,112
2017-11-25T15:26:00.269Z,112
2017-11-25T15:26:25.782Z,104
2017-11-25T15:26:51.312Z,104
2017-11-25T15:27:16.803Z,104
2017-11-25T15:27:42.280Z,100
2017-11-25T15:28:07.784Z,96
2017-11-25T15:28:33.286Z,92
2017-11-25T15:28:58.816Z,92
2017-11-25T15:29:24.281Z,84
2017-11-25T15:29:49.775Z,76
2017-11-25T15:30:15.231Z,72
2017-11-25T15:30:40.703Z,72
2017-11-25T15:31:06.244Z,68
2017-11-25T15:31:31.699Z,68
2017-11-25T15:31:57.181Z,68
2017-11-25T15:32:22.656Z,68
2017-11-25T15:32:48.159Z,64
2017-11-25T15:33:13.635Z,60
2017-11-25T15:33:39.149Z,56
2017-11-25T15:34:04.635Z,56
2017-11-25T15:34:30.148Z,52
2017-11-25T15:34:55.727Z,44